createdAt,value
2018-03-16T00:00:49.222Z,100435.88
2018-03-16T00:05:51.717Z,100423.24
2018-03-16T00:10:54.196Z,100422.94
2018-03-16T00:15:56.685Z,100428.59
2018-03-16T00:20:59.191Z,100416.37
2018-03-16T00:26:01.708Z,100411.21
2018-03-16T00:31:04.176Z,100404.41
2018-03-16T00:36:06.700Z,100418.57
2018-03-16T00:41:09.167Z,100418.41
2018-03-16T00:46:11.657Z,100427.61
2018-03-16T00:51:14.156Z,100425.12
2018-03-16T00:56:16.622Z,100425.65
2018-03-16T01:01:19.090Z,100430.10
2018-03-16T01:06:21.557Z,100420.28
2018-03-16T01:11:24.021Z,100424.70
2018-03-16T01:16:26.497Z,100424.77
2018-03-16T01:21:28.982Z,100431.78
2018-03-16T01:26:31.466Z,100422.22
2018-03-16T01:31:33.991Z,100423.34
2018-03-16T01:36:36.498Z,100415.31
2018-03-16T01:41:39.014Z,100418.97
2018-03-16T01:46:41.511Z,100410.83
2018-03-16T01:51:44.042Z,100422.82
2018-03-16T01:56:47.441Z,100420.23
2018-03-16T02:01:49.985Z,100417.11
2018-03-16T02:06:52.477Z,100426.46
2018-03-16T02:11:54.953Z,100419.81
2018-03-16T02:16:57.428Z,100410.41
2018-03-16T02:22:00.738Z,100417.34
2018-03-16T02:27:03.207Z,100410.36
2018-03-16T02:32:05.679Z,100393.84
2018-03-16T02:37:08.164Z,100390.88
2018-03-16T02:42:10.630Z,100381.64
2018-03-16T02:47:13.101Z,100378.22
2018-03-16T02:52:15.570Z,100389.19
2018-03-16T02:57:18.042Z,100391.19
2018-03-16T03:02:20.509Z,100391.05
2018-03-16T03:07:22.974Z,100392.37
2018-03-16T03:12:25.453Z,100406.72
2018-03-16T03:17:27.949Z,100407.30
2018-03-16T03:22:30.451Z,100410.73
2018-03-16T03:27:32.909Z,100414.57
2018-03-16T03:32:35.384Z,100393.72
2018-03-16T03:37:37.868Z,100400.90
2018-03-16T03:42:40.353Z,100394.08
2018-03-16T03:47:42.964Z,100393.41
2018-03-16T03:52:45.427Z,100397.08
2018-03-16T03:57:48.236Z,100396.55
2018-03-16T04:02:50.881Z,100400.20
2018-03-16T04:07:53.373Z,100397.13
2018-03-16T04:12:55.857Z,100399.54
2018-03-16T04:17:58.341Z,100394.15
2018-03-16T04:23:00.823Z,100412.66
2018-03-16T04:28:03.282Z,100406.91
2018-03-16T04:33:05.803Z,100404.75
2018-03-16T04:38:08.329Z,100397.03
2018-03-16T04:43:10.809Z,100388.50
2018-03-16T04:48:13.319Z,100390.49
2018-03-16T04:53:15.789Z,100391.85
2018-03-16T04:58:18.245Z,100376.81
2018-03-16T05:03:20.701Z,100393.13
2018-03-16T05:08:23.176Z,100394.56
2018-03-16T05:13:25.646Z,100406.73
2018-03-16T05:18:28.127Z,100389.58
2018-03-16T05:23:30.628Z,100394.91
2018-03-16T05:28:33.121Z,100401.02
2018-03-16T05:33:35.642Z,100408.91
2018-03-16T05:38:38.118Z,100404.09
2018-03-16T05:43:40.603Z,100398.91
2018-03-16T05:48:43.093Z,100407.63
2018-03-16T05:53:45.552Z,100413.21
2018-03-16T05:58:48.044Z,100407.09
2018-03-16T06:03:50.541Z,100401.69
2018-03-16T06:08:53.030Z,100400.49
2018-03-16T06:13:55.519Z,100398.27
2018-03-16T06:18:58.018Z,100401.23
2018-03-16T06:24:00.514Z,100400.22
2018-03-16T06:29:03.462Z,100402.78
2018-03-16T06:34:06.279Z,100400.02
2018-03-16T06:39:08.839Z,100406.10
2018-03-16T06:44:11.667Z,100400.11
2018-03-16T06:49:14.227Z,100400.46
2018-03-16T06:54:16.736Z,100404.94
2018-03-16T06:59:19.193Z,100403.59
2018-03-16T07:04:21.677Z,100408.05
2018-03-16T07:09:24.148Z,100409.26
2018-03-16T07:14:26.679Z,100410.88
2018-03-16T07:19:29.174Z,100417.39
2018-03-16T07:24:31.646Z,100420.61
2018-03-16T07:29:34.139Z,100430.24
2018-03-16T07:34:36.619Z,100455.98
2018-03-16T07:39:39.087Z,100444.13
2018-03-16T07:44:41.560Z,100452.06
2018-03-16T07:49:44.047Z,100440.37
2018-03-16T07:54:46.539Z,100447.61
2018-03-16T07:59:49.029Z,100467.92
2018-03-16T08:04:51.501Z,100463.59
2018-03-16T08:09:53.981Z,100462.88
2018-03-16T08:14:56.537Z,100467.60
2018-03-16T08:19:59.027Z,100476.56
2018-03-16T08:25:01.535Z,100474.82
2018-03-16T08:30:04.039Z,100468.78
2018-03-16T08:35:06.527Z,100489.58
2018-03-16T08:40:08.979Z,100492.11
2018-03-16T08:45:11.465Z,100487.78
2018-03-16T08:50:13.972Z,100489.08
2018-03-16T08:55:16.464Z,100486.97
2018-03-16T09:00:18.972Z,100485.70
2018-03-16T09:05:21.510Z,100470.71
2018-03-16T09:10:25.102Z,100482.19
2018-03-16T09:15:27.582Z,100486.20
2018-03-16T09:20:30.065Z,100485.96
2018-03-16T09:25:32.591Z,100488.30
2018-03-16T09:30:35.100Z,100492.62
2018-03-16T09:35:37.673Z,100493.20
2018-03-16T09:40:40.152Z,100496.25
2018-03-16T09:45:42.641Z,100507.44
2018-03-16T09:50:45.126Z,100510.06
2018-03-16T09:55:47.617Z,100518.28
2018-03-16T10:00:50.127Z,100519.65
2018-03-16T10:05:52.603Z,100517.96
2018-03-16T10:10:55.120Z,100520.97
2018-03-16T10:15:57.588Z,100529.88
2018-03-16T10:21:00.062Z,100528.36
2018-03-16T10:26:02.545Z,100532.20
2018-03-16T10:31:05.095Z,100530.11
2018-03-16T10:36:07.574Z,100529.89
2018-03-16T10:41:10.096Z,100527.22
2018-03-16T10:46:12.542Z,100528.02
2018-03-16T10:51:15.042Z,100523.70
2018-03-16T10:56:18.226Z,100525.27
2018-03-16T11:01:20.725Z,100519.91
2018-03-16T11:06:36.024Z,100525.02
2018-03-16T11:11:38.607Z,100522.64
2018-03-16T11:16:41.451Z,100512.65
2018-03-16T11:21:43.940Z,100517.80
2018-03-16T11:26:46.436Z,100513.79
2018-03-16T11:31:48.916Z,100518.45
2018-03-16T11:36:51.383Z,100527.06
2018-03-16T11:41:53.846Z,100540.14
2018-03-16T11:46:56.349Z,100538.32
2018-03-16T11:51:58.824Z,100541.20
2018-03-16T11:57:01.330Z,100534.88
2018-03-16T12:02:03.830Z,100531.42
2018-03-16T12:07:06.317Z,100533.80
2018-03-16T12:12:08.830Z,100545.87
2018-03-16T12:17:11.326Z,100533.37
2018-03-16T12:22:13.816Z,100532.37
2018-03-16T12:27:16.311Z,100533.78
2018-03-16T12:32:18.854Z,100539.25
2018-03-16T12:37:21.333Z,100543.66
2018-03-16T12:42:23.818Z,100540.05
2018-03-16T12:47:26.316Z,100547.42
2018-03-16T12:52:28.790Z,100549.94
2018-03-16T12:57:31.270Z,100541.12
2018-03-16T13:02:33.961Z,100540.88
2018-03-16T13:07:36.495Z,100547.61
2018-03-16T13:12:38.969Z,100547.88
2018-03-16T13:17:41.471Z,100552.73
2018-03-16T13:22:43.944Z,100554.83
2018-03-16T13:27:46.439Z,100558.30
2018-03-16T13:32:48.924Z,100554.98
2018-03-16T13:37:51.397Z,100542.22
2018-03-16T13:42:53.869Z,100556.50
2018-03-16T13:47:56.398Z,100556.92
2018-03-16T13:52:58.872Z,100557.44
2018-03-16T13:58:01.361Z,100566.86
2018-03-16T14:03:03.875Z,100567.95
2018-03-16T14:08:06.476Z,100568.75
2018-03-16T14:13:09.098Z,100571.80
2018-03-16T14:18:11.594Z,100584.56
2018-03-16T14:23:14.972Z,100575.20
2018-03-16T14:28:17.494Z,100586.23
2018-03-16T14:33:22.234Z,100597.97
2018-03-16T14:38:25.038Z,100599.47
2018-03-16T14:43:28.633Z,100601.47
2018-03-16T14:48:31.199Z,100611.60
2018-03-16T14:53:34.536Z,100610.71
2018-03-16T14:58:37.576Z,100618.61
2018-03-16T15:03:40.073Z,100626.53
2018-03-16T15:08:42.569Z,100624.46
2018-03-16T15:13:45.235Z,100625.00
2018-03-16T15:18:48.307Z,100628.31
2018-03-16T15:23:52.127Z,100619.84
2018-03-16T15:28:57.365Z,100634.92
2018-03-16T15:34:03.650Z,100631.75
2018-03-16T15:39:07.400Z,100635.14
2018-03-16T15:44:10.063Z,100638.74
2018-03-16T15:49:15.142Z,100655.86
2018-03-16T15:54:18.064Z,100660.27
2018-03-16T15:59:22.379Z,100661.23
2018-03-16T16:04:25.243Z,100674.45
2018-03-16T16:09:28.672Z,100681.91
2018-03-16T16:14:32.264Z,100684.96
2018-03-16T16:19:36.471Z,100701.23
2018-03-16T16:24:38.954Z,100699.92
2018-03-16T16:29:41.854Z,100703.99
2018-03-16T16:34:44.335Z,100716.37
2018-03-16T16:39:46.853Z,100718.86
2018-03-16T16:44:49.343Z,100727.92
2018-03-16T16:49:51.823Z,100734.78
2018-03-16T16:54:54.377Z,100735.00
2018-03-16T16:59:56.876Z,100751.28
2018-03-16T17:04:59.358Z,100754.94
2018-03-16T17:10:01.828Z,100762.41
2018-03-16T17:15:04.278Z,100772.08
2018-03-16T17:20:06.766Z,100783.73
2018-03-16T17:25:09.247Z,100785.98
2018-03-16T17:30:11.705Z,100805.14
2018-03-16T17:35:14.202Z,100804.39
2018-03-16T17:40:16.676Z,100818.95
2018-03-16T17:45:19.197Z,100828.11
2018-03-16T17:50:21.674Z,100826.21
2018-03-16T17:55:24.142Z,100827.63
2018-03-16T18:00:26.636Z,100835.05
2018-03-16T18:05:29.197Z,100831.73
2018-03-16T18:10:31.691Z,100857.73
2018-03-16T18:15:34.214Z,100865.13
2018-03-16T18:20:36.709Z,100862.55
2018-03-16T18:25:39.188Z,100861.90
2018-03-16T18:30:41.669Z,100862.23
2018-03-16T18:35:44.142Z,100874.30
2018-03-16T18:40:46.637Z,100875.03
2018-03-16T18:45:49.085Z,100876.92
2018-03-16T18:50:51.567Z,100882.45
2018-03-16T18:55:54.021Z,100887.77
2018-03-16T19:00:56.507Z,100888.84
2018-03-16T19:05:58.991Z,100897.52
2018-03-16T19:11:01.473Z,100903.11
2018-03-16T19:16:04.010Z,100905.76
2018-03-16T19:21:10.308Z,100908.27
2018-03-16T19:26:12.797Z,100914.06
2018-03-16T19:31:15.322Z,100922.84
2018-03-16T19:36:19.923Z,100915.28
2018-03-16T19:41:22.415Z,100925.52
2018-03-16T19:46:24.937Z,100934.83
2018-03-16T19:51:27.850Z,100929.73
2018-03-16T19:56:32.408Z,100938.73
2018-03-16T20:01:35.045Z,100935.95
2018-03-16T20:06:38.736Z,100936.80
2018-03-16T20:11:41.384Z,100936.98
2018-03-16T20:16:48.819Z,100948.41
2018-03-16T20:21:51.348Z,100934.94
2018-03-16T20:26:54.034Z,100944.24
2018-03-16T20:31:57.479Z,100937.80
2018-03-16T20:37:06.094Z,100936.56
2018-03-16T20:42:15.333Z,100941.59
2018-03-16T20:47:19.252Z,100947.45
2018-03-16T20:52:22.913Z,100946.03
2018-03-16T20:57:26.391Z,100953.02
2018-03-16T21:02:28.954Z,100968.63
2018-03-16T21:07:31.568Z,100972.41
2018-03-16T21:12:34.106Z,100969.96
2018-03-16T21:17:36.669Z,100974.67
2018-03-16T21:22:39.235Z,100985.09
2018-03-16T21:27:41.803Z,100988.52
2018-03-16T21:32:45.218Z,100995.58
2018-03-16T21:37:47.696Z,100992.72
2018-03-16T21:42:50.157Z,101000.94
2018-03-16T21:47:52.688Z,101002.48
2018-03-16T21:52:55.377Z,101019.79
2018-03-16T21:57:57.915Z,101006.16
2018-03-16T22:03:00.363Z,101005.65
2018-03-16T22:08:03.792Z,101017.33
2018-03-16T22:13:06.275Z,101020.63
2018-03-16T22:18:08.770Z,101020.89
2018-03-16T22:23:11.262Z,101009.90
2018-03-16T22:28:14.623Z,101020.92
2018-03-16T22:33:17.103Z,101020.54
2018-03-16T22:38:19.567Z,101022.28
2018-03-16T22:43:22.051Z,101035.49
2018-03-16T22:48:24.552Z,101038.44
2018-03-16T22:53:27.095Z,101041.84
2018-03-16T22:58:29.587Z,101052.30
2018-03-16T23:03:32.344Z,101055.24
2018-03-16T23:08:34.829Z,101052.62
2018-03-16T23:13:37.317Z,101050.70
2018-03-16T23:18:39.774Z,101049.43
2018-03-16T23:23:46.020Z,101050.17
2018-03-16T23:28:48.557Z,101062.37
2018-03-16T23:33:51.077Z,101061.72
2018-03-16T23:38:53.546Z,101067.86
2018-03-16T23:43:56.126Z,101064.06
2018-03-16T23:48:58.645Z,101070.86
2018-03-16T23:54:01.104Z,101075.29
2018-03-16T23:59:03.589Z,101073.69
